Time;durP1;ratioP1;P1;durP2;ratioP2;P2;SDS_P1;SDS_P2;PMS_P1;PMS_P2;Temp;Humidity;BMP_temperature;BMP_pressure;BME280_temperature;BME280_humidity;BME280_pressure;Samples;Min_cycle;Max_cycle;Signal;HPM_P1;HPM_P2
2022/10/19 00:02:19;;;;;;;4.25;0.73;;;;;;;;;;5078273;28;20089;-79
2022/10/19 00:04:51;;;;;;;2.78;0.98;;;;;;;;;;5077887;28;20040;-78
2022/10/19 00:07:19;;;;;;;7.57;1.10;;;;;;;;;;5076978;28;20040;-78
2022/10/19 00:09:48;;;;;;;5.50;0.70;;;;;;;;;;5076097;28;20054;-78
2022/10/19 00:12:41;;;;;;;2.17;0.85;;;;;;;;;;5077992;28;20040;-78
2022/10/19 00:15:38;;;;;;;2.92;0.90;;;;;;;;;;5078230;28;20037;-79
2022/10/19 00:18:10;;;;;;;3.08;0.60;;;;;;;;;;5076059;28;20054;-78
2022/10/19 00:20:37;;;;;;;2.25;0.65;;;;;;;;;;5076832;28;20507;-79
2022/10/19 00:23:05;;;;;;;7.38;0.75;;;;;;;;;;5077953;28;20052;-78
2022/10/19 00:25:33;;;;;;;4.28;0.70;;;;;;;;;;5076203;28;20044;-78
2022/10/19 00:28:26;;;;;;;7.07;1.08;;;;;;;;;;5078282;28;20078;-78
2022/10/19 00:31:17;;;;;;;3.85;0.90;;;;;;;;;;5077029;28;20444;-79
2022/10/19 00:33:46;;;;;;;2.30;0.57;;;;;;;;;;5078268;28;20037;-78
2022/10/19 00:36:29;;;;;;;7.55;0.90;;;;;;;;;;5077809;28;20038;-78
2022/10/19 00:42:04;;;;;;;5.50;0.80;;;;;;;;;;5078079;28;20044;-78
2022/10/19 00:44:38;;;;;;;7.88;1.80;;;;;;;;;;5077304;28;20543;-79
2022/10/19 00:47:11;;;;;;;6.05;1.00;;;;;;;;;;5077585;28;20048;-78
2022/10/19 00:49:43;;;;;;;6.70;1.20;;;;;;;;;;5071476;28;20040;-78
2022/10/19 00:52:19;;;;;;;5.22;1.00;;;;;;;;;;5075417;28;20427;-79
2022/10/19 00:54:49;;;;;;;6.72;1.02;;;;;;;;;;5074468;28;20039;-79
2022/10/19 00:57:41;;;;;;;5.82;0.80;;;;;;;;;;5076026;28;20025;-79
2022/10/19 01:00:10;;;;;;;4.28;0.90;;;;;;;;;;5073670;28;20474;-78
2022/10/19 01:02:37;;;;;;;3.67;0.98;;;;;;;;;;5076354;28;20079;-78
2022/10/19 01:05:07;;;;;;;6.63;0.98;;;;;;;;;;5073511;28;20032;-79
2022/10/19 01:07:33;;;;;;;8.68;1.20;;;;;;;;;;5074248;28;20776;-78
2022/10/19 01:10:03;;;;;;;4.47;0.60;;;;;;;;;;5074419;28;20131;-79
2022/10/19 01:13:13;;;;;;;8.25;1.02;;;;;;;;;;5076775;28;20048;-79
2022/10/19 01:16:36;;;;;;;2.92;0.88;;;;;;;;;;5074069;28;20033;-79
2022/10/19 01:19:09;;;;;;;9.45;1.25;;;;;;;;;;5076461;28;20036;-79
2022/10/19 01:21:47;;;;;;;5.30;1.15;;;;;;;;;;5071334;28;20046;-78
2022/10/19 01:24:31;;;;;;;7.53;0.77;;;;;;;;;;5075566;28;20034;-79
2022/10/19 01:27:09;;;;;;;6.93;0.88;;;;;;;;;;5074626;28;20037;-80
2022/10/19 01:29:53;;;;;;;1.42;0.57;;;;;;;;;;5074263;28;20068;-79
2022/10/19 01:32:31;;;;;;;6.35;0.80;;;;;;;;;;5075792;28;20058;-79
2022/10/19 01:35:24;;;;;;;7.15;0.65;;;;;;;;;;5089105;28;20465;-79
2022/10/19 01:38:00;;;;;;;5.10;0.60;;;;;;;;;;5079099;28;20434;-79
2022/10/19 01:40:56;;;;;;;4.50;0.80;;;;;;;;;;5078420;28;20109;-79
2022/10/19 01:43:36;;;;;;;3.08;0.90;;;;;;;;;;5080399;28;20036;-80
2022/10/19 01:46:19;;;;;;;2.55;0.57;;;;;;;;;;5076528;28;20032;-79
2022/10/19 01:49:23;;;;;;;3.50;0.60;;;;;;;;;;5079483;28;20468;-80
2022/10/19 01:51:56;;;;;;;6.68;0.75;;;;;;;;;;5080612;28;20076;-80
2022/10/19 01:54:29;;;;;;;4.53;0.60;;;;;;;;;;5075764;28;20028;-80
2022/10/19 01:57:06;;;;;;;4.70;0.90;;;;;;;;;;5077668;28;20055;-79
2022/10/19 01:59:35;;;;;;;3.40;0.73;;;;;;;;;;5079071;28;20040;-80
2022/10/19 02:02:26;;;;;;;4.85;0.60;;;;;;;;;;5076948;28;20567;-79
2022/10/19 02:04:56;;;;;;;7.32;0.95;;;;;;;;;;5078505;28;20047;-80
2022/10/19 02:07:24;;;;;;;7.40;0.80;;;;;;;;;;5078489;28;20166;-80
2022/10/19 02:09:56;;;;;;;10.15;1.48;;;;;;;;;;5077316;28;20032;-81
2022/10/19 02:12:30;;;;;;;5.47;0.90;;;;;;;;;;5078335;28;20040;-80
2022/10/19 02:15:01;;;;;;;4.57;1.13;;;;;;;;;;5077545;28;20067;-81
2022/10/19 02:17:58;;;;;;;4.70;1.00;;;;;;;;;;5078242;28;20074;-80
2022/10/19 02:20:51;;;;;;;8.80;1.35;;;;;;;;;;5090760;28;20032;-80
2022/10/19 02:23:23;;;;;;;4.20;0.70;;;;;;;;;;5079460;28;20062;-79
2022/10/19 02:25:52;;;;;;;5.32;1.13;;;;;;;;;;5077986;28;20044;-79
2022/10/19 02:28:48;;;;;;;2.00;0.55;;;;;;;;;;5076039;28;20445;-80
2022/10/19 02:31:16;;;;;;;1.85;0.55;;;;;;;;;;5075369;28;20113;-80
2022/10/19 02:33:44;;;;;;;8.15;1.00;;;;;;;;;;5080473;28;20048;-80
2022/10/19 02:36:14;;;;;;;4.60;0.57;;;;;;;;;;5076251;28;20466;-80
2022/10/19 02:38:48;;;;;;;5.65;0.88;;;;;;;;;;5078236;28;20032;-80
2022/10/19 02:41:21;;;;;;;2.70;0.77;;;;;;;;;;5078158;28;20066;-79
2022/10/19 02:43:57;;;;;;;4.10;0.93;;;;;;;;;;5084972;28;20052;-80
2022/10/19 02:46:36;;;;;;;3.67;0.88;;;;;;;;;;5083034;28;20036;-79
2022/10/19 02:49:06;;;;;;;4.20;0.80;;;;;;;;;;5091895;28;20047;-79
2022/10/19 02:51:38;;;;;;;2.70;0.63;;;;;;;;;;5084912;28;20037;-80
2022/10/19 02:54:07;;;;;;;6.82;0.70;;;;;;;;;;5084770;28;20036;-80
2022/10/19 02:56:39;;;;;;;5.28;0.70;;;;;;;;;;5077284;28;20556;-79
2022/10/19 02:59:11;;;;;;;8.25;1.25;;;;;;;;;;5079758;28;20048;-79
2022/10/19 03:01:39;;;;;;;3.63;1.00;;;;;;;;;;5076171;28;20067;-80
2022/10/19 03:04:11;;;;;;;10.05;0.80;;;;;;;;;;5078091;28;20402;-79
2022/10/19 03:06:43;;;;;;;6.85;1.25;;;;;;;;;;5076073;28;20050;-79
2022/10/19 03:09:11;;;;;;;4.30;0.65;;;;;;;;;;5079187;28;20041;-80
2022/10/19 03:11:39;;;;;;;3.90;0.63;;;;;;;;;;5077212;28;20482;-80
2022/10/19 03:14:07;;;;;;;4.07;0.52;;;;;;;;;;5077211;28;20047;-79
2022/10/19 03:16:35;;;;;;;2.88;0.82;;;;;;;;;;5077317;28;20032;-80
2022/10/19 03:19:03;;;;;;;7.80;1.17;;;;;;;;;;5075122;28;20036;-80
2022/10/19 03:21:35;;;;;;;3.80;0.75;;;;;;;;;;5077787;28;20044;-80
2022/10/19 03:24:32;;;;;;;6.00;0.98;;;;;;;;;;5077947;28;20177;-80
2022/10/19 03:26:59;;;;;;;8.00;0.80;;;;;;;;;;5075671;28;20067;-79
2022/10/19 03:29:27;;;;;;;4.13;1.13;;;;;;;;;;5076772;28;20037;-79
2022/10/19 03:31:55;;;;;;;11.13;1.15;;;;;;;;;;5072836;28;20537;-80
2022/10/19 03:34:28;;;;;;;4.43;0.90;;;;;;;;;;5076198;28;20033;-80
2022/10/19 03:36:57;;;;;;;7.28;1.02;;;;;;;;;;5078378;28;20044;-81
2022/10/19 03:39:29;;;;;;;5.25;0.75;;;;;;;;;;5077861;28;20156;-80
2022/10/19 03:42:01;;;;;;;1.50;0.52;;;;;;;;;;5079007;28;20036;-80
2022/10/19 03:44:33;;;;;;;1.92;0.65;;;;;;;;;;5074512;28;20039;-80
2022/10/19 03:47:01;;;;;;;7.07;0.63;;;;;;;;;;5074662;28;20048;-79
2022/10/19 03:49:33;;;;;;;10.93;1.10;;;;;;;;;;5074082;28;20051;-79
2022/10/19 03:52:10;;;;;;;4.97;1.88;;;;;;;;;;5089768;28;20047;-79
2022/10/19 03:54:43;;;;;;;5.88;0.60;;;;;;;;;;5076419;28;20044;-80
2022/10/19 03:57:11;;;;;;;6.13;0.80;;;;;;;;;;5078106;28;20079;-80
2022/10/19 03:59:43;;;;;;;0.98;0.32;;;;;;;;;;5078620;28;20044;-80
2022/10/19 04:02:11;;;;;;;6.30;0.63;;;;;;;;;;5077571;28;20444;-80
2022/10/19 04:04:43;;;;;;;6.35;0.80;;;;;;;;;;5074032;28;20127;-80
2022/10/19 04:07:11;;;;;;;6.72;1.50;;;;;;;;;;5076626;28;20261;-80
2022/10/19 04:09:39;;;;;;;6.47;0.80;;;;;;;;;;5076858;28;20036;-80
2022/10/19 04:12:07;;;;;;;6.47;0.68;;;;;;;;;;5074655;28;20036;-80
2022/10/19 04:14:40;;;;;;;5.30;0.80;;;;;;;;;;5076991;28;20043;-79
2022/10/19 04:17:31;;;;;;;3.03;1.05;;;;;;;;;;5075882;28;20024;-80
2022/10/19 04:19:59;;;;;;;8.10;0.93;;;;;;;;;;5072755;28;20048;-80
2022/10/19 04:22:27;;;;;;;4.97;0.75;;;;;;;;;;5074390;28;20658;-79
2022/10/19 04:24:59;;;;;;;6.32;0.90;;;;;;;;;;5091108;28;20044;-80
2022/10/19 04:27:33;;;;;;;2.97;0.68;;;;;;;;;;5076195;28;20044;-80
2022/10/19 04:30:06;;;;;;;5.47;0.70;;;;;;;;;;5088781;28;20033;-80
2022/10/19 04:32:33;;;;;;;3.65;1.10;;;;;;;;;;5077682;28;20042;-80
2022/10/19 04:35:02;;;;;;;2.30;0.60;;;;;;;;;;5074112;28;20032;-81
2022/10/19 04:37:29;;;;;;;9.95;0.88;;;;;;;;;;5069953;28;20123;-80
2022/10/19 04:39:57;;;;;;;5.22;0.77;;;;;;;;;;5078261;28;20147;-81
2022/10/19 04:42:29;;;;;;;4.20;0.80;;;;;;;;;;5073362;28;20063;-81
2022/10/19 04:45:21;;;;;;;4.60;0.88;;;;;;;;;;5071082;28;20025;-81
2022/10/19 04:48:13;;;;;;;3.92;1.38;;;;;;;;;;5075814;28;20040;-80
2022/10/19 04:51:06;;;;;;;3.03;0.85;;;;;;;;;;5073126;28;20063;-81
2022/10/19 04:53:35;;;;;;;1.70;0.60;;;;;;;;;;5088952;28;20068;-81
2022/10/19 04:56:05;;;;;;;4.50;0.70;;;;;;;;;;5070364;28;20039;-81
2022/10/19 05:01:29;;;;;;;2.85;0.70;;;;;;;;;;5071535;28;20047;-81
2022/10/19 05:04:02;;;;;;;7.72;0.90;;;;;;;;;;5074027;28;20045;-81
2022/10/19 05:06:55;;;;;;;3.53;0.47;;;;;;;;;;5075447;28;20167;-81
2022/10/19 05:09:24;;;;;;;5.00;1.00;;;;;;;;;;5078707;28;20075;-80
2022/10/19 05:11:51;;;;;;;4.75;0.90;;;;;;;;;;5080129;28;20486;-80
2022/10/19 05:14:23;;;;;;;5.90;1.05;;;;;;;;;;5075375;28;20371;-81
2022/10/19 05:16:51;;;;;;;4.93;1.00;;;;;;;;;;5080121;28;20055;-80
2022/10/19 05:19:20;;;;;;;3.80;0.75;;;;;;;;;;5077008;28;20035;-80
2022/10/19 05:21:47;;;;;;;4.72;0.60;;;;;;;;;;5079392;28;20033;-81
2022/10/19 05:24:15;;;;;;;2.47;0.95;;;;;;;;;;5079088;28;20124;-82
2022/10/19 05:26:43;;;;;;;4.82;0.73;;;;;;;;;;5079266;28;20047;-81
2022/10/19 05:29:12;;;;;;;4.78;1.00;;;;;;;;;;5079190;28;20044;-81
2022/10/19 05:31:40;;;;;;;5.00;0.85;;;;;;;;;;5077317;28;20040;-82
2022/10/19 05:34:11;;;;;;;4.90;1.17;;;;;;;;;;5070457;28;20102;-82
2022/10/19 05:36:40;;;;;;;6.95;0.88;;;;;;;;;;5078586;28;20040;-82
2022/10/19 05:39:12;;;;;;;4.38;0.90;;;;;;;;;;5076939;28;20040;-82
2022/10/19 05:41:42;;;;;;;6.68;0.70;;;;;;;;;;5079781;28;20093;-83
2022/10/19 05:44:15;;;;;;;4.05;0.93;;;;;;;;;;5073128;28;20059;-81
2022/10/19 05:46:42;;;;;;;7.32;0.95;;;;;;;;;;5072798;28;20481;-82
2022/10/19 05:49:11;;;;;;;4.88;1.17;;;;;;;;;;5093842;28;20044;-82
2022/10/19 05:51:38;;;;;;;7.75;1.00;;;;;;;;;;5077298;28;20097;-82
2022/10/19 05:54:11;;;;;;;4.93;1.20;;;;;;;;;;5071789;28;20044;-81
2022/10/19 05:56:40;;;;;;;5.43;0.80;;;;;;;;;;5076521;28;20036;-83
2022/10/19 05:59:17;;;;;;;5.70;1.30;;;;;;;;;;5079470;28;20040;-82
2022/10/19 06:01:45;;;;;;;4.50;0.70;;;;;;;;;;5075739;28;20040;-82
2022/10/19 06:04:14;;;;;;;2.60;0.70;;;;;;;;;;5070776;28;20045;-82
2022/10/19 06:06:46;;;;;;;13.23;1.40;;;;;;;;;;5078252;28;20036;-82
2022/10/19 06:09:42;;;;;;;3.97;0.75;;;;;;;;;;5080429;28;20055;-81
2022/10/19 06:12:09;;;;;;;7.90;1.33;;;;;;;;;;5077435;28;20044;-82
2022/10/19 06:15:01;;;;;;;6.45;1.67;;;;;;;;;;5079459;28;20111;-82
2022/10/19 06:17:29;;;;;;;5.50;1.27;;;;;;;;;;5075421;28;20046;-82
2022/10/19 06:19:57;;;;;;;8.85;1.50;;;;;;;;;;5075654;28;20565;-82
2022/10/19 06:22:29;;;;;;;4.63;1.00;;;;;;;;;;5070306;28;20135;-81
2022/10/19 06:25:01;;;;;;;8.50;1.10;;;;;;;;;;5071561;28;20063;-82
2022/10/19 06:27:30;;;;;;;4.70;1.02;;;;;;;;;;5077580;28;20567;-82
2022/10/19 06:29:57;;;;;;;12.40;1.52;;;;;;;;;;5076108;28;20048;-81
2022/10/19 06:32:27;;;;;;;8.02;1.20;;;;;;;;;;5064962;28;20032;-81
2022/10/19 06:34:53;;;;;;;7.68;1.48;;;;;;;;;;5076584;28;20055;-82
2022/10/19 06:37:28;;;;;;;8.20;1.10;;;;;;;;;;5074138;28;20040;-82
2022/10/19 06:39:55;;;;;;;8.60;1.38;;;;;;;;;;5075092;28;20399;-82
2022/10/19 06:42:38;;;;;;;11.30;1.23;;;;;;;;;;5077079;28;20075;-83
2022/10/19 06:45:08;;;;;;;8.10;1.40;;;;;;;;;;5070017;28;20040;-84
2022/10/19 06:47:36;;;;;;;10.05;1.80;;;;;;;;;;5078225;28;20048;-83
2022/10/19 06:50:06;;;;;;;7.93;1.35;;;;;;;;;;5073926;28;20527;-83
2022/10/19 06:52:59;;;;;;;7.43;1.38;;;;;;;;;;5072161;28;20039;-84
2022/10/19 06:55:27;;;;;;;8.82;1.25;;;;;;;;;;5070846;28;20040;-83
2022/10/19 06:58:00;;;;;;;9.57;1.30;;;;;;;;;;5071119;28;20048;-83
2022/10/19 07:00:28;;;;;;;6.78;1.17;;;;;;;;;;5077342;28;20051;-83
2022/10/19 07:02:58;;;;;;;10.63;1.50;;;;;;;;;;5076145;28;20126;-83
2022/10/19 07:05:29;;;;;;;10.75;1.30;;;;;;;;;;5074156;28;20028;-83
2022/10/19 07:07:57;;;;;;;5.63;0.98;;;;;;;;;;5071267;28;20036;-83
2022/10/19 07:10:25;;;;;;;7.80;1.77;;;;;;;;;;5076086;28;20529;-83
2022/10/19 07:12:55;;;;;;;8.85;1.67;;;;;;;;;;5076537;28;20061;-83
2022/10/19 07:15:23;;;;;;;12.13;1.60;;;;;;;;;;5075639;28;20053;-83
2022/10/19 07:18:15;;;;;;;11.73;1.85;;;;;;;;;;5077760;28;20081;-82
2022/10/19 07:20:53;;;;;;;7.47;1.45;;;;;;;;;;5076299;28;20052;-83
2022/10/19 07:23:22;;;;;;;2.95;1.00;;;;;;;;;;5078112;28;20454;-84
2022/10/19 07:25:51;;;;;;;8.93;1.52;;;;;;;;;;5077495;28;20028;-83
2022/10/19 07:28:20;;;;;;;6.57;1.10;;;;;;;;;;5077502;28;20170;-83
2022/10/19 07:30:47;;;;;;;8.70;1.70;;;;;;;;;;5074065;28;20131;-83
2022/10/19 07:33:15;;;;;;;12.60;1.65;;;;;;;;;;5076776;28;20040;-83
2022/10/19 07:35:43;;;;;;;16.35;1.52;;;;;;;;;;5072234;28;21974;-84
2022/10/19 07:38:11;;;;;;;8.93;1.20;;;;;;;;;;5072424;28;20215;-84
2022/10/19 07:41:06;;;;;;;4.90;1.30;;;;;;;;;;5078177;28;20530;-84
2022/10/19 07:43:35;;;;;;;7.63;1.60;;;;;;;;;;5092187;28;20048;-84
2022/10/19 07:46:10;;;;;;;4.40;0.98;;;;;;;;;;5074043;28;20364;-83
2022/10/19 07:48:44;;;;;;;9.65;1.10;;;;;;;;;;5091146;28;20048;-83
2022/10/19 07:51:14;;;;;;;10.70;1.65;;;;;;;;;;5076648;28;20044;-83
2022/10/19 07:53:42;;;;;;;11.23;2.38;;;;;;;;;;5077750;28;20159;-83
2022/10/19 07:56:18;;;;;;;7.32;1.20;;;;;;;;;;5078737;28;20161;-83
2022/10/19 07:58:46;;;;;;;9.07;1.10;;;;;;;;;;5077573;28;20452;-83
2022/10/19 08:01:17;;;;;;;8.88;1.52;;;;;;;;;;5076951;28;20040;-82
2022/10/19 08:03:46;;;;;;;6.40;1.65;;;;;;;;;;5073355;28;20045;-84
2022/10/19 08:06:35;;;;;;;9.80;0.95;;;;;;;;;;5076571;28;20044;-83
2022/10/19 08:09:27;;;;;;;11.55;1.40;;;;;;;;;;5077117;28;20036;-83
2022/10/19 08:12:16;;;;;;;7.47;1.92;;;;;;;;;;5076301;28;20055;-83
2022/10/19 08:14:46;;;;;;;6.05;1.60;;;;;;;;;;5075237;28;20387;-83
2022/10/19 08:17:18;;;;;;;7.75;1.48;;;;;;;;;;5075271;28;20119;-83
2022/10/19 08:19:51;;;;;;;8.50;1.08;;;;;;;;;;5076085;28;20067;-83
2022/10/19 08:22:19;;;;;;;5.05;1.10;;;;;;;;;;5076575;28;20040;-82
2022/10/19 08:25:13;;;;;;;15.63;1.10;;;;;;;;;;5076012;28;20039;-83
2022/10/19 08:27:41;;;;;;;7.72;1.05;;;;;;;;;;5075828;28;20465;-83
2022/10/19 08:30:10;;;;;;;6.43;1.30;;;;;;;;;;5077322;28;20045;-83
2022/10/19 08:33:06;;;;;;;12.55;1.42;;;;;;;;;;5076290;28;20432;-84
2022/10/19 08:35:34;;;;;;;11.18;1.20;;;;;;;;;;5074447;28;20046;-83
2022/10/19 08:38:01;;;;;;;10.25;1.85;;;;;;;;;;5070578;28;20107;-83
2022/10/19 08:40:30;;;;;;;8.27;1.20;;;;;;;;;;5064544;28;20486;-82
2022/10/19 08:43:01;;;;;;;10.20;1.85;;;;;;;;;;5065629;28;20040;-83
2022/10/19 08:45:39;;;;;;;9.05;1.50;;;;;;;;;;5073126;28;20039;-83
2022/10/19 08:48:31;;;;;;;11.88;1.60;;;;;;;;;;5069409;28;20101;-83
2022/10/19 08:51:53;;;;;;;9.98;1.50;;;;;;;;;;5074775;28;20094;-83
2022/10/19 08:54:23;;;;;;;13.63;1.83;;;;;;;;;;5072933;28;20050;-83
2022/10/19 08:57:09;;;;;;;7.38;1.70;;;;;;;;;;5074595;28;20040;-83
2022/10/19 08:59:50;;;;;;;7.40;1.15;;;;;;;;;;5075664;28;20111;-82
2022/10/19 09:02:41;;;;;;;9.10;1.85;;;;;;;;;;5070572;28;20071;-83
2022/10/19 09:05:28;;;;;;;9.82;1.95;;;;;;;;;;5071547;28;20516;-83
2022/10/19 09:07:56;;;;;;;7.57;1.30;;;;;;;;;;5073878;28;20390;-83
2022/10/19 09:10:34;;;;;;;8.85;1.52;;;;;;;;;;5072908;28;20140;-84
2022/10/19 09:13:10;;;;;;;9.18;1.33;;;;;;;;;;5070993;28;20094;-83
2022/10/19 09:16:04;;;;;;;8.60;1.20;;;;;;;;;;5075723;28;20044;-83
2022/10/19 09:18:55;;;;;;;8.48;1.33;;;;;;;;;;5076960;28;20131;-83
2022/10/19 09:21:59;;;;;;;6.95;1.38;;;;;;;;;;5072013;28;20048;-83
2022/10/19 09:24:42;;;;;;;4.80;1.35;;;;;;;;;;5067013;28;20043;-83
2022/10/19 09:27:19;;;;;;;10.63;1.60;;;;;;;;;;5068462;28;20036;-83
2022/10/19 09:29:54;;;;;;;14.13;1.50;;;;;;;;;;5072494;28;20050;-83
2022/10/19 09:32:30;;;;;;;7.18;1.40;;;;;;;;;;5073175;28;20124;-83
2022/10/19 09:35:02;;;;;;;8.02;1.67;;;;;;;;;;5073438;28;20040;-83
2022/10/19 09:37:31;;;;;;;5.22;1.30;;;;;;;;;;5075358;28;20412;-83
2022/10/19 09:39:57;;;;;;;8.27;1.42;;;;;;;;;;5074701;28;20060;-84
2022/10/19 09:42:31;;;;;;;13.93;1.60;;;;;;;;;;5071590;28;20041;-83
2022/10/19 09:45:20;;;;;;;10.02;1.65;;;;;;;;;;5073710;28;20032;-84
2022/10/19 09:47:48;;;;;;;6.00;1.05;;;;;;;;;;5028082;28;20107;-83
2022/10/19 09:50:43;;;;;;;8.40;1.40;;;;;;;;;;5029770;28;20033;-83
2022/10/19 09:53:19;;;;;;;7.00;1.60;;;;;;;;;;5031005;28;20052;-83
2022/10/19 09:56:08;;;;;;;6.72;1.70;;;;;;;;;;5016444;28;20425;-82
2022/10/19 09:58:46;;;;;;;8.55;1.15;;;;;;;;;;5035070;28;20053;-83
2022/10/19 10:01:35;;;;;;;11.20;1.50;;;;;;;;;;5030895;28;20414;-82
2022/10/19 10:04:15;;;;;;;7.85;1.17;;;;;;;;;;5033120;28;20084;-83
2022/10/19 10:06:47;;;;;;;4.22;1.30;;;;;;;;;;5018637;28;20049;-83
2022/10/19 10:09:16;;;;;;;4.38;1.10;;;;;;;;;;5032429;28;20135;-83
2022/10/19 10:11:48;;;;;;;6.15;1.10;;;;;;;;;;5035318;28;20145;-83
2022/10/19 10:14:39;;;;;;;5.63;2.17;;;;;;;;;;5035868;28;20052;-83
2022/10/19 10:17:32;;;;;;;4.85;1.08;;;;;;;;;;5031404;28;20029;-83
2022/10/19 10:20:17;;;;;;;10.68;1.20;;;;;;;;;;5038590;28;20053;-84
2022/10/19 10:23:02;;;;;;;5.90;1.20;;;;;;;;;;5031788;28;20435;-83
2022/10/19 10:25:35;;;;;;;7.57;1.35;;;;;;;;;;5065163;28;20048;-83
2022/10/19 10:28:19;;;;;;;6.68;1.30;;;;;;;;;;5071670;28;20475;-83
2022/10/19 10:31:24;;;;;;;7.38;1.30;;;;;;;;;;5079596;28;20110;-83
2022/10/19 10:34:00;;;;;;;4.45;1.92;;;;;;;;;;5077322;28;20044;-83
2022/10/19 10:36:59;;;;;;;4.18;1.20;;;;;;;;;;5065804;28;20024;-83
2022/10/19 10:39:28;;;;;;;7.75;1.75;;;;;;;;;;5090863;28;20484;-83
2022/10/19 10:42:02;;;;;;;7.25;1.80;;;;;;;;;;5074488;28;20040;-83
2022/10/19 10:44:56;;;;;;;6.25;1.00;;;;;;;;;;5089006;28;20085;-83
2022/10/19 10:47:48;;;;;;;7.45;1.13;;;;;;;;;;5092199;28;20032;-84
2022/10/19 10:50:36;;;;;;;7.55;1.10;;;;;;;;;;5074946;28;20040;-83
2022/10/19 10:53:38;;;;;;;6.88;1.30;;;;;;;;;;5076897;28;20421;-83
2022/10/19 10:56:20;;;;;;;4.28;1.25;;;;;;;;;;5076956;28;20531;-83
2022/10/19 10:58:53;;;;;;;5.78;1.00;;;;;;;;;;5074253;28;20483;-83
2022/10/19 11:01:25;;;;;;;4.43;0.85;;;;;;;;;;5079985;28;20039;-83
2022/10/19 11:04:07;;;;;;;4.43;0.82;;;;;;;;;;5073395;28;20040;-83
2022/10/19 11:06:46;;;;;;;4.30;1.13;;;;;;;;;;5074447;28;20101;-82
2022/10/19 11:09:42;;;;;;;5.45;1.10;;;;;;;;;;5073257;28;20040;-83
2022/10/19 11:12:13;;;;;;;3.42;0.98;;;;;;;;;;5073412;28;20037;-82
2022/10/19 11:14:48;;;;;;;6.70;1.00;;;;;;;;;;5070559;28;20044;-82
2022/10/19 11:17:22;;;;;;;4.88;0.95;;;;;;;;;;5074818;28;20388;-82
2022/10/19 11:19:50;;;;;;;4.00;1.05;;;;;;;;;;5070938;28;20506;-83
2022/10/19 11:22:31;;;;;;;4.95;1.00;;;;;;;;;;5075854;28;20128;-83
2022/10/19 11:25:18;;;;;;;2.75;0.85;;;;;;;;;;5086932;28;20184;-82
2022/10/19 11:27:57;;;;;;;8.20;1.75;;;;;;;;;;5075740;28;20036;-80
2022/10/19 11:33:45;;;;;;;5.10;0.95;;;;;;;;;;5069339;28;20522;-80
2022/10/19 11:37:10;;;;;;;2.67;0.77;;;;;;;;;;5075140;28;20033;-79
2022/10/19 11:39:53;;;;;;;5.47;1.15;;;;;;;;;;4998034;28;20124;-80
2022/10/19 11:42:46;;;;;;;4.00;0.82;;;;;;;;;;5016220;28;20764;-80
2022/10/19 11:46:02;;;;;;;3.97;1.08;;;;;;;;;;5001035;28;20075;-80
2022/10/19 11:48:53;;;;;;;5.10;0.90;;;;;;;;;;4937333;29;20055;-80
2022/10/19 11:51:45;;;;;;;3.28;0.60;;;;;;;;;;4937111;29;20046;-80
2022/10/19 11:54:38;;;;;;;3.28;0.70;;;;;;;;;;4936630;29;20678;-81
2022/10/19 11:57:26;;;;;;;5.55;0.80;;;;;;;;;;4938540;29;20063;-81
2022/10/19 12:00:14;;;;;;;3.10;0.73;;;;;;;;;;4938336;29;20079;-81
2022/10/19 12:03:21;;;;;;;2.65;0.60;;;;;;;;;;4922880;29;20051;-81
2022/10/19 12:06:16;;;;;;;4.43;0.90;;;;;;;;;;4936537;29;20158;-81
2022/10/19 12:09:07;;;;;;;2.75;0.52;;;;;;;;;;4921074;29;20618;-81
2022/10/19 12:12:13;;;;;;;1.33;0.47;;;;;;;;;;4936712;29;20100;-81
2022/10/19 12:14:51;;;;;;;1.63;0.40;;;;;;;;;;4954933;28;20062;-81
2022/10/19 12:17:28;;;;;;;3.30;0.82;;;;;;;;;;4998076;28;20116;-82
2022/10/19 12:20:22;;;;;;;1.58;0.45;;;;;;;;;;4998671;28;20649;-82
2022/10/19 12:22:50;;;;;;;3.40;0.63;;;;;;;;;;5000496;28;20045;-82
2022/10/19 12:25:19;;;;;;;1.90;0.60;;;;;;;;;;5034006;28;20602;-82
2022/10/19 12:27:49;;;;;;;4.85;0.90;;;;;;;;;;5072100;28;20527;-82
2022/10/19 12:30:23;;;;;;;1.90;0.32;;;;;;;;;;5071232;28;20110;-82
2022/10/19 12:32:49;;;;;;;1.55;0.60;;;;;;;;;;5068856;28;20082;-82
2022/10/19 12:35:43;;;;;;;3.83;0.80;;;;;;;;;;5069487;28;20047;-82
2022/10/19 12:38:39;;;;;;;3.50;0.70;;;;;;;;;;5076398;28;20049;-82
2022/10/19 12:41:29;;;;;;;2.20;0.70;;;;;;;;;;5074162;28;20036;-82
2022/10/19 12:44:10;;;;;;;2.88;0.80;;;;;;;;;;5075300;28;20056;-81
2022/10/19 12:46:43;;;;;;;5.93;0.95;;;;;;;;;;5087420;28;20397;-83
2022/10/19 12:49:25;;;;;;;3.97;0.95;;;;;;;;;;5074102;28;20066;-83
2022/10/19 12:51:56;;;;;;;2.97;1.10;;;;;;;;;;5070172;28;20500;-84
2022/10/19 12:54:26;;;;;;;2.88;0.68;;;;;;;;;;5069654;28;20033;-84
2022/10/19 12:57:20;;;;;;;3.00;0.70;;;;;;;;;;5075211;28;20032;-84
2022/10/19 13:00:18;;;;;;;2.42;0.52;;;;;;;;;;5073773;28;20047;-83
2022/10/19 13:02:54;;;;;;;4.53;0.80;;;;;;;;;;5067797;28;20067;-82
2022/10/19 13:05:23;;;;;;;3.25;0.63;;;;;;;;;;5073490;28;20045;-83
2022/10/19 13:07:56;;;;;;;3.15;0.60;;;;;;;;;;5069152;28;20056;-82
2022/10/19 13:11:04;;;;;;;2.40;0.55;;;;;;;;;;5070520;28;20090;-83
2022/10/19 13:14:00;;;;;;;2.92;0.70;;;;;;;;;;5067222;28;20045;-83
2022/10/19 13:16:27;;;;;;;3.13;1.35;;;;;;;;;;5063227;28;20068;-83
2022/10/19 13:19:21;;;;;;;2.15;0.40;;;;;;;;;;5070217;28;20105;-83
2022/10/19 13:21:59;;;;;;;4.32;0.85;;;;;;;;;;5085200;28;20630;-83
2022/10/19 13:24:25;;;;;;;2.72;0.60;;;;;;;;;;5070145;28;20064;-83
2022/10/19 13:27:02;;;;;;;8.20;0.95;;;;;;;;;;5075907;28;20142;-82
2022/10/19 13:29:53;;;;;;;1.25;0.52;;;;;;;;;;5074378;28;20032;-82
2022/10/19 13:32:43;;;;;;;3.70;0.60;;;;;;;;;;5075509;28;20036;-82
2022/10/19 13:35:33;;;;;;;1.90;0.38;;;;;;;;;;5075130;28;20038;-82
2022/10/19 13:38:07;;;;;;;1.67;0.60;;;;;;;;;;5087601;28;20473;-82
2022/10/19 13:40:48;;;;;;;4.43;1.38;;;;;;;;;;5078927;28;20148;-82
2022/10/19 13:43:49;;;;;;;2.17;0.70;;;;;;;;;;5079587;28;20165;-82
2022/10/19 13:46:33;;;;;;;1.85;0.43;;;;;;;;;;5074998;28;20127;-82
2022/10/19 13:49:24;;;;;;;3.10;0.50;;;;;;;;;;5094437;28;20044;-82
2022/10/19 13:52:18;;;;;;;15.75;0.82;;;;;;;;;;5077763;28;20076;-82
2022/10/19 13:55:13;;;;;;;1.27;0.60;;;;;;;;;;5072911;28;20576;-82
2022/10/19 13:57:58;;;;;;;1.95;0.43;;;;;;;;;;5080259;28;20037;-82
2022/10/19 14:01:03;;;;;;;0.98;0.30;;;;;;;;;;5075863;28;20070;-82
2022/10/19 14:03:53;;;;;;;2.47;0.60;;;;;;;;;;5072823;28;20051;-82
2022/10/19 14:06:46;;;;;;;1.63;0.40;;;;;;;;;;5071678;28;20048;-82
2022/10/19 14:09:20;;;;;;;2.95;0.50;;;;;;;;;;5057535;28;20127;-82
2022/10/19 14:11:51;;;;;;;1.77;0.40;;;;;;;;;;5077335;28;20051;-83
2022/10/19 14:14:24;;;;;;;0.80;0.50;;;;;;;;;;5074676;28;20366;-82
2022/10/19 14:16:57;;;;;;;1.15;0.50;;;;;;;;;;5069362;28;20032;-83
2022/10/19 14:19:45;;;;;;;2.08;0.38;;;;;;;;;;5074056;28;20043;-82
2022/10/19 14:22:19;;;;;;;2.80;0.63;;;;;;;;;;5078221;28;20036;-82
2022/10/19 14:25:03;;;;;;;1.45;0.40;;;;;;;;;;5070534;28;20123;-82
2022/10/19 14:27:32;;;;;;;1.67;0.47;;;;;;;;;;5074548;28;20032;-82
2022/10/19 14:30:00;;;;;;;3.25;0.47;;;;;;;;;;5075745;28;20052;-82
2022/10/19 14:32:28;;;;;;;0.43;0.30;;;;;;;;;;5077311;28;20040;-82
2022/10/19 14:35:20;;;;;;;4.53;0.47;;;;;;;;;;5075517;28;20044;-82
2022/10/19 14:37:48;;;;;;;1.35;0.40;;;;;;;;;;5073968;28;20051;-82
2022/10/19 14:40:31;;;;;;;0.85;0.30;;;;;;;;;;5076694;28;20508;-82
2022/10/19 14:42:59;;;;;;;4.03;0.50;;;;;;;;;;5070631;28;20336;-82
2022/10/19 14:46:07;;;;;;;0.60;0.32;;;;;;;;;;5089641;28;20108;-82
2022/10/19 14:49:05;;;;;;;0.40;0.20;;;;;;;;;;5072822;28;20059;-82
2022/10/19 14:51:42;;;;;;;0.73;0.35;;;;;;;;;;5072278;28;20470;-82
2022/10/19 14:54:28;;;;;;;2.92;0.40;;;;;;;;;;5071507;28;20039;-83
2022/10/19 14:57:06;;;;;;;1.27;0.30;;;;;;;;;;5078204;28;20048;-82
2022/10/19 14:59:36;;;;;;;1.08;0.15;;;;;;;;;;5075043;28;20040;-82
2022/10/19 15:02:22;;;;;;;0.77;0.30;;;;;;;;;;5079746;28;20528;-82
2022/10/19 15:04:51;;;;;;;1.00;0.40;;;;;;;;;;5074539;28;20039;-82
2022/10/19 15:07:24;;;;;;;0.20;0.20;;;;;;;;;;5075991;28;20040;-82
2022/10/19 15:09:56;;;;;;;1.00;0.30;;;;;;;;;;5074624;28;20124;-82
2022/10/19 15:12:36;;;;;;;1.48;0.30;;;;;;;;;;5076161;28;20051;-82
2022/10/19 15:15:16;;;;;;;2.90;0.43;;;;;;;;;;5071364;28;20041;-82
2022/10/19 15:18:05;;;;;;;2.85;0.57;;;;;;;;;;5075244;28;20032;-83
2022/10/19 15:20:38;;;;;;;1.67;0.45;;;;;;;;;;5073396;28;20039;-82
2022/10/19 15:23:44;;;;;;;1.25;0.38;;;;;;;;;;5073304;28;20147;-82
2022/10/19 15:26:19;;;;;;;1.42;0.60;;;;;;;;;;5075597;28;20123;-81
2022/10/19 15:28:47;;;;;;;2.58;0.55;;;;;;;;;;5073653;28;20051;-82
2022/10/19 15:31:17;;;;;;;1.65;0.52;;;;;;;;;;5072118;28;20155;-85
2022/10/19 15:33:50;;;;;;;1.95;0.68;;;;;;;;;;5076924;28;20048;-82
2022/10/19 15:36:19;;;;;;;3.83;0.50;;;;;;;;;;5076619;28;20068;-81
2022/10/19 15:38:56;;;;;;;1.27;0.50;;;;;;;;;;5074509;28;20035;-85
2022/10/19 15:41:44;;;;;;;0.32;0.22;;;;;;;;;;5087666;28;20451;-84
2022/10/19 15:44:43;;;;;;;2.78;0.82;;;;;;;;;;5072531;28;20064;-84
2022/10/19 15:47:17;;;;;;;1.45;0.47;;;;;;;;;;5074363;28;20086;-84
2022/10/19 15:50:30;;;;;;;1.40;0.70;;;;;;;;;;5074305;28;20028;-84
2022/10/19 15:52:58;;;;;;;6.00;0.77;;;;;;;;;;5070111;28;20458;-83
2022/10/19 15:55:25;;;;;;;1.75;0.65;;;;;;;;;;5078517;28;20050;-84